Aeroporto :
LOGIN :

Iscrizione | Disclaimer

   EN    FR    IT 

 










Sommario :    VFR   VFR Marginale   IFR   IFR Intensivo   IFR Molto Intensivo
Visibilità : 
Base nubi : 
>= 8 km
>= 3000ft
5 / 8 km
1000 / 3000 ft
1500m / 5 km
500 / 1000 ft
800 / 1500m
200 / 500 ft
< 800m
< 200 ft
Simboli :   Temporali  Nebbia  Neve Forte  Precipitazioni Forti  Vento > 20 kt
SIGMETs :   Varie  Temporali  Ghiacco  Turbolenza  Onda orograficha  Ceneri Vulcaniche






- Altitudine del aeroporto : 209 ft
- Codice IATA : CLY


LFKC - Calvi

ULTIMO METAR :
  • 040130Z AUTO 17005KT 150V210 9999 FEW064 BKN190 BKN210 07/04 Q1001

METARs OBSOLETI :
  • 040100Z AUTO 17005KT 150V210 9999 FEW060 BKN230 07/04 Q1002
  • 040030Z AUTO VRB01KT 9999 BKN058 BKN160 BKN220 07/04 Q1002
  • 040000Z AUTO 20004KT 9999 BKN054 07/04 Q1003
  • 032330Z AUTO 16006KT 9999 FEW054 06/03 Q1003
  • 032300Z AUTO 18003KT 130V220 CAVOK 06/04 Q1003

TAF TAF LFKC
Valido dal 03 a 15 ore il 04 a 15 ore UTC


031400Z 0315/0415 35006KT 9999 FEW040 TX15/0412Z TN05/0405Z
BECMG 0317/0318 18007KT
BECMG 0400/0402 FEW040 BKN150
BECMG 0407/0408 20017G30KT
TEMPO 0408/0415 19020G33KT
BECMG 0414/0415 RA SCT040 OVC070
ATIS : +33 4 95 65 82 49



MetMap, La meteo Aeronautica in un colpo d'occhio ! - Copyright ORBIFLY Dicembre 2007 - Disclaimer

ORBIFLY MET'MAP TEAM :

Programmazione e sviluppo : Alexandra Zaïnal
Concezione : Baudouin d'Aumeries
Aiuto per la programmazione : Marc-Olivier Méhu
Supporto tecnico e logistico : Manuel Goepfert
Aiuto per la traduzione : Arnaldo La Scala

Contatto : metmap@orbifly.com




FONTI E CREDITI :

   NOAA